createdAt,value
2023-02-17T00:04:12.528Z,8.69
2023-02-17T00:09:12.503Z,8.70
2023-02-17T00:14:12.408Z,8.78
2023-02-17T00:19:12.334Z,8.78
2023-02-17T00:24:12.260Z,8.78
2023-02-17T00:29:12.216Z,8.73
2023-02-17T00:34:12.136Z,8.71
2023-02-17T00:39:12.099Z,8.71
2023-02-17T00:44:14.224Z,8.67
2023-02-17T00:49:11.949Z,8.63
2023-02-17T00:54:11.876Z,8.64
2023-02-17T00:59:11.817Z,8.58
2023-02-17T01:04:11.768Z,8.55
2023-02-17T01:09:29.179Z,8.49
2023-02-17T01:14:21.590Z,8.52
2023-02-17T01:19:21.505Z,8.53
2023-02-17T01:24:21.454Z,8.60
2023-02-17T01:29:21.382Z,8.60
2023-02-17T01:34:21.323Z,8.56
2023-02-17T01:39:21.242Z,8.55
2023-02-17T01:44:21.195Z,8.53
2023-02-17T01:49:21.108Z,8.52
2023-02-17T01:54:21.051Z,8.53
2023-02-17T01:59:20.970Z,8.56
2023-02-17T02:04:20.930Z,8.61
2023-02-17T02:09:20.838Z,8.56
2023-02-17T02:14:20.793Z,8.60
2023-02-17T02:19:20.706Z,8.67
2023-02-17T02:24:20.680Z,8.71
2023-02-17T02:29:20.593Z,8.70
2023-02-17T02:34:20.546Z,8.63
2023-02-17T02:39:20.490Z,8.55
2023-02-17T02:44:20.421Z,8.51
2023-02-17T02:49:20.319Z,8.55
2023-02-17T02:54:20.269Z,8.58
2023-02-17T02:59:20.164Z,8.56
2023-02-17T03:04:20.128Z,8.60
2023-02-17T03:09:20.057Z,8.60
2023-02-17T03:14:19.976Z,8.55
2023-02-17T03:19:19.927Z,8.52
2023-02-17T03:24:19.888Z,8.49
2023-02-17T03:29:19.789Z,8.46
2023-02-17T03:34:19.756Z,8.44
2023-02-17T03:39:19.733Z,8.41
2023-02-17T03:44:19.622Z,8.53
2023-02-17T03:49:19.537Z,8.53
2023-02-17T03:54:19.506Z,8.55
2023-02-17T03:59:19.387Z,8.58
2023-02-17T04:04:19.413Z,8.64
2023-02-17T04:09:19.265Z,8.64
2023-02-17T04:14:19.222Z,8.71
2023-02-17T04:19:21.161Z,8.74
2023-02-17T04:24:19.079Z,8.73
2023-02-17T04:29:18.997Z,8.73
2023-02-17T04:34:18.948Z,8.70
2023-02-17T04:39:18.839Z,8.84
2023-02-17T04:44:18.818Z,9.10
2023-02-17T04:49:18.725Z,9.18
2023-02-17T04:54:18.676Z,9.23
2023-02-17T04:59:18.592Z,9.28
2023-02-17T05:04:18.549Z,9.31
2023-02-17T05:09:18.479Z,9.29
2023-02-17T05:14:18.404Z,9.25
2023-02-17T05:19:34.322Z,9.19
2023-02-17T05:24:26.713Z,9.26
2023-02-17T05:29:26.663Z,9.31
2023-02-17T05:34:26.584Z,9.34
2023-02-17T05:39:26.546Z,9.36
2023-02-17T05:44:26.441Z,9.43
2023-02-17T05:49:26.402Z,9.47
2023-02-17T05:55:06.578Z,9.46
2023-02-17T06:00:06.405Z,9.54
2023-02-17T06:05:06.380Z,9.51
2023-02-17T06:10:06.287Z,9.58
2023-02-17T06:15:06.185Z,9.64
2023-02-17T06:20:06.130Z,9.68
2023-02-17T06:25:06.040Z,9.68
2023-02-17T06:30:06.038Z,9.66
2023-02-17T06:35:05.926Z,9.66
2023-02-17T06:40:05.877Z,9.68
2023-02-17T06:45:05.782Z,9.73
2023-02-17T06:50:05.712Z,9.74
2023-02-17T06:55:05.652Z,9.82
2023-02-17T07:00:05.620Z,9.91
2023-02-17T07:05:05.516Z,9.89
2023-02-17T07:10:05.467Z,9.89
2023-02-17T07:15:05.413Z,9.87
2023-02-17T07:20:05.325Z,9.87
2023-02-17T07:25:05.284Z,9.95
2023-02-17T07:30:05.255Z,10.07
2023-02-17T07:35:05.145Z,10.17
2023-02-17T07:40:05.059Z,10.23
2023-02-17T07:45:05.026Z,10.28
2023-02-17T07:50:04.920Z,10.25
2023-02-17T07:55:04.872Z,10.26
2023-02-17T08:00:04.803Z,10.26
2023-02-17T08:05:04.730Z,10.25
2023-02-17T08:10:04.667Z,10.25
2023-02-17T08:15:04.599Z,10.28
2023-02-17T08:20:08.640Z,10.31
2023-02-17T08:25:04.501Z,10.38
2023-02-17T08:30:04.472Z,10.38
2023-02-17T08:35:04.389Z,10.40
2023-02-17T08:40:04.305Z,10.41
2023-02-17T08:45:04.212Z,10.46
2023-02-17T08:50:04.143Z,10.57
2023-02-17T08:55:04.068Z,10.74
2023-02-17T09:00:05.605Z,10.99
2023-02-17T09:05:03.981Z,11.19
2023-02-17T09:10:03.910Z,11.26
2023-02-17T09:15:03.815Z,11.36
2023-02-17T09:20:05.064Z,11.60
2023-02-17T09:25:04.710Z,11.86
2023-02-17T09:30:03.672Z,11.97
2023-02-17T09:35:03.556Z,12.10
2023-02-17T09:40:03.487Z,12.31
2023-02-17T09:45:03.449Z,12.55
2023-02-17T09:50:03.348Z,12.64
2023-02-17T09:55:03.367Z,12.87
2023-02-17T10:00:03.242Z,12.95
2023-02-17T10:05:03.274Z,13.00
2023-02-17T10:10:03.154Z,13.13
2023-02-17T10:15:03.110Z,13.16
2023-02-17T10:20:02.994Z,13.46
2023-02-17T10:25:02.913Z,13.83
2023-02-17T10:30:02.928Z,14.08
2023-02-17T10:35:02.766Z,13.97
2023-02-17T10:40:02.690Z,14.18
2023-02-17T10:45:02.718Z,14.84
2023-02-17T10:50:02.593Z,15.14
2023-02-17T10:55:06.581Z,15.07
2023-02-17T11:00:03.419Z,16.50
2023-02-17T11:05:02.355Z,17.63
2023-02-17T11:10:02.278Z,17.12
2023-02-17T11:15:02.219Z,18.08
2023-02-17T11:20:02.146Z,17.74
2023-02-17T11:25:02.162Z,17.36
2023-02-17T11:30:02.056Z,16.29
2023-02-17T11:35:01.995Z,17.14
2023-02-17T11:40:01.924Z,17.24
2023-02-17T11:45:01.842Z,16.75
2023-02-17T11:50:01.781Z,16.83
2023-02-17T11:55:01.704Z,16.76
2023-02-17T12:00:01.590Z,16.78
2023-02-17T12:05:01.624Z,16.87
2023-02-17T12:10:01.496Z,16.35
2023-02-17T12:15:01.446Z,16.02
2023-02-17T12:20:01.344Z,15.55
2023-02-17T12:25:01.300Z,15.70
2023-02-17T12:30:01.282Z,15.54
2023-02-17T12:35:01.158Z,15.31
2023-02-17T12:40:01.629Z,15.21
2023-02-17T12:45:01.016Z,15.09
2023-02-17T12:50:00.935Z,14.91
2023-02-17T12:55:00.884Z,15.09
2023-02-17T13:00:00.832Z,14.81
2023-02-17T13:05:00.763Z,14.86
2023-02-17T13:10:00.752Z,14.81
2023-02-17T13:15:00.645Z,14.70
2023-02-17T13:20:00.567Z,14.60
2023-02-17T13:25:00.499Z,14.69
2023-02-17T13:30:00.482Z,14.73
2023-02-17T13:35:00.403Z,15.00
2023-02-17T13:40:00.301Z,14.99
2023-02-17T13:45:00.274Z,14.99
2023-02-17T13:50:00.179Z,14.91
2023-02-17T13:55:00.111Z,14.88
2023-02-17T14:00:00.091Z,14.99
2023-02-17T14:05:00.066Z,14.79
2023-02-17T14:09:59.890Z,14.79
2023-02-17T14:14:59.870Z,14.68
2023-02-17T14:19:59.759Z,14.55
2023-02-17T14:24:59.694Z,14.44
2023-02-17T14:29:59.689Z,14.43
2023-02-17T14:34:59.595Z,14.35
2023-02-17T14:39:59.480Z,14.30
2023-02-17T14:44:59.435Z,14.28
2023-02-17T14:49:59.377Z,14.25
2023-02-17T14:54:59.282Z,14.23
2023-02-17T14:59:59.239Z,14.26
2023-02-17T15:04:59.175Z,14.25
2023-02-17T15:09:59.116Z,14.51
2023-02-17T15:14:59.091Z,14.72
2023-02-17T15:19:58.945Z,14.92
2023-02-17T15:24:58.903Z,15.09
2023-02-17T15:29:58.929Z,15.07
2023-02-17T15:34:58.767Z,15.14
2023-02-17T15:39:58.673Z,15.07
2023-02-17T15:44:58.638Z,15.07
2023-02-17T15:49:58.550Z,15.14
2023-02-17T15:54:58.507Z,15.14
2023-02-17T15:59:58.416Z,15.15
2023-02-17T16:04:58.385Z,15.17
2023-02-17T16:09:58.277Z,15.07
2023-02-17T16:14:58.258Z,14.92
2023-02-17T16:19:58.141Z,14.91
2023-02-17T16:24:58.089Z,14.89
2023-02-17T16:29:58.076Z,14.78
2023-02-17T16:34:57.993Z,14.72
2023-02-17T16:39:57.886Z,14.65
2023-02-17T16:44:57.840Z,14.60
2023-02-17T16:49:57.766Z,14.58
2023-02-17T16:54:57.708Z,14.50
2023-02-17T16:59:57.610Z,14.48
2023-02-17T17:04:57.565Z,14.47
2023-02-17T17:10:15.299Z,14.50
2023-02-17T17:14:58.438Z,14.62
2023-02-17T17:19:57.357Z,14.59
2023-02-17T17:24:57.294Z,14.59
2023-02-17T17:29:57.244Z,14.60
2023-02-17T17:34:57.205Z,14.60
2023-02-17T17:39:57.062Z,14.40
2023-02-17T17:44:57.058Z,14.26
2023-02-17T17:49:56.947Z,14.00
2023-02-17T17:54:56.972Z,13.52
2023-02-17T17:59:56.828Z,13.08
2023-02-17T18:04:56.798Z,12.75
2023-02-17T18:09:56.802Z,12.45
2023-02-17T18:14:56.644Z,12.32
2023-02-17T18:19:56.677Z,12.18
2023-02-17T18:24:56.529Z,12.06
2023-02-17T18:29:56.523Z,11.95
2023-02-17T18:34:56.395Z,11.86
2023-02-17T18:39:56.341Z,11.83
2023-02-17T18:44:56.236Z,11.80
2023-02-17T18:49:56.183Z,11.77
2023-02-17T18:54:56.133Z,11.78
2023-02-17T18:59:56.036Z,11.75
2023-02-17T19:04:55.979Z,11.70
2023-02-17T19:09:55.905Z,11.70
2023-02-17T19:14:55.886Z,11.72
2023-02-17T19:19:55.775Z,11.78
2023-02-17T19:24:55.722Z,11.80
2023-02-17T19:29:55.644Z,11.81
2023-02-17T19:34:55.589Z,11.88
2023-02-17T19:39:55.481Z,11.86
2023-02-17T19:44:55.449Z,11.81
2023-02-17T19:49:55.368Z,11.80
2023-02-17T19:54:55.354Z,11.73
2023-02-17T19:59:55.244Z,11.70
2023-02-17T20:04:55.197Z,11.70
2023-02-17T20:09:55.145Z,11.69
2023-02-17T20:14:55.056Z,11.72
2023-02-17T20:19:54.997Z,11.69
2023-02-17T20:24:54.960Z,11.75
2023-02-17T20:29:54.865Z,11.80
2023-02-17T20:34:54.816Z,11.81
2023-02-17T20:39:54.743Z,11.73
2023-02-17T20:44:54.668Z,11.69
2023-02-17T20:49:54.604Z,11.66
2023-02-17T20:54:54.534Z,11.69
2023-02-17T20:59:54.461Z,11.77
2023-02-17T21:04:54.414Z,11.78
2023-02-17T21:09:54.321Z,11.73
2023-02-17T21:14:54.284Z,11.80
2023-02-17T21:19:54.171Z,11.81
2023-02-17T21:24:54.163Z,11.86
2023-02-17T21:29:54.097Z,11.83
2023-02-17T21:34:53.994Z,11.83
2023-02-17T21:39:53.998Z,11.90
2023-02-17T21:44:53.863Z,11.91
2023-02-17T21:49:53.802Z,11.87
2023-02-17T21:54:53.756Z,11.77
2023-02-17T21:59:53.655Z,11.69
2023-02-17T22:04:53.656Z,11.52
2023-02-17T22:09:53.558Z,11.41
2023-02-17T22:14:53.520Z,11.30
2023-02-17T22:19:53.387Z,11.11
2023-02-17T22:24:53.358Z,10.96
2023-02-17T22:29:53.333Z,10.82
2023-02-17T22:34:53.221Z,10.68
2023-02-17T22:39:53.136Z,10.60
2023-02-17T22:44:53.055Z,10.60
2023-02-17T22:49:52.994Z,10.64
2023-02-17T22:54:52.940Z,10.61
2023-02-17T22:59:52.840Z,10.68
2023-02-17T23:04:52.797Z,10.84
2023-02-17T23:09:52.759Z,10.92
2023-02-17T23:14:52.691Z,10.89
2023-02-17T23:19:52.600Z,10.79
2023-02-17T23:24:52.539Z,10.60
2023-02-17T23:29:52.469Z,10.38
2023-02-17T23:34:52.421Z,10.15
2023-02-17T23:39:52.325Z,9.91
2023-02-17T23:44:52.290Z,9.69
2023-02-17T23:49:52.196Z,9.55
2023-02-17T23:54:52.168Z,9.40
2023-02-17T23:59:52.064Z,9.31
